Genoa Bluff, Iowa
Current Conditions -  °F | °C
As of 3:52 PM on Wednesday 26 Nov 2014 (Local Time) from KCID Reporting Station
Light Snow Light Snow  
Wind Chill: 19°   Ceiling: 1200
Heat Index: 29°   Visibility: 4mi
Dew Point: 25°   Wind: 13mph
Humidity: 85%   Direction: 60°ENE
Pressure: 30.09"   Gusts: NA
Location:  41.7846°N, 92.1025°W
Report Text: KCID 262152Z 06011KT 4SM -SN BR BKN012 BKN047 OVC055 M02/M04 A3009 RMK AO2 SNB51 SLP201 P0000 T10171039
Loading
Personal Weather Stations






























Interactive Weather Map New forecast layout! Learn more

10-Day Weather Forecast

Advertisements
Track Severe Weather on mobile